MAPA DE AEROPUERTO

INFORMACIÓN METAR y TAF


Deprecated: The each() function is deprecated. This message will be suppressed on further calls in /home/customer/www/clickair-va.com/public_html/VAM/vam/helpers/get_metar.php on line 20
METAR FOR LEBB
ADDS - METARS form results

(1619 UTC 13 January 2023)
Data provider http://aviationweather.gov/metar/data/
 
METAR text: LEBB 131600Z 10003KT 080V140 9999 SCT031 SCT040 14/11 Q1028 NOSIG
Conditions at: LEBB (BILBAO/SONDICA , ES) observed 1600 UTC 13 January 2023
Temperature: 14.0°C (57°F)
Dewpoint: 11.0°C (52°F) [RH = 82%]
Pressure (altimeter): 30.35 inches Hg (1028.0 mb)
Winds: from the E (100 degrees) at 3 MPH (3 knots; 1.5 m/s)
Visibility: 6 or more miles (10+ km)
Ceiling: at least 12,000 feet AGL
Clouds: scattered clouds at 3100 feet AGL
scattered clouds at 4000 feet AGL
Weather: no significant weather observed at this time

METAR text: LEBB 131530Z 12003KT 080V140 9999 SCT033 BKN040 14/11 Q1028 NOSIG
Conditions at: LEBB (BILBAO/SONDICA , ES) observed 1530 UTC 13 January 2023
Temperature: 14.0°C (57°F)
Dewpoint: 11.0°C (52°F) [RH = 82%]
Pressure (altimeter): 30.35 inches Hg (1028.0 mb)
Winds: from the ESE (120 degrees) at 3 MPH (3 knots; 1.5 m/s)
Visibility: 6 or more miles (10+ km)
Ceiling: 4000 feet AGL
Clouds: scattered clouds at 3300 feet AGL
broken clouds at 4000 feet AGL
Weather: no significant weather observed at this time

Forecast for: LEBB (BILBAO/SONDICA , ES)
Text: TAF LEBB 131100Z 1312/1412 18008KT 9999 SCT010 BKN020 TX15/1315Z TN09/1405Z
Forecast period: 1200 UTC 13 January 2023 to 1200 UTC 14 January 2023
Forecast type: FROM: standard forecast or significant change
Winds: from the S (180 degrees) at 9 MPH (8 knots; 4.1 m/s)
Visibility: 6 or more miles (10+ km)
Ceiling: 2000 feet AGL
Clouds: scattered clouds at 1000 feet AGL
broken clouds at 2000 feet AGL
Weather: no significant weather forecast for this period
Text: PROB30
Forecast period: 1200 to 1400 UTC 13 January 2023
Forecast type: TEMPORARY: The following changes expected for less than half the time period
Visibility: 1.86 miles (2.99 km)
Ceiling: 1000 feet AGL
Clouds: broken clouds at 1000 feet AGL
Weather: -RA  (light rain)
Text: TEMPO 1312/1314 3000 -RA BKN010
Forecast period: 2000 UTC 13 January 2023 to 1200 UTC 14 January 2023
Forecast type: TEMPORARY: The following changes expected for less than half the time period
Winds: from the SSW (200 degrees) at 17 MPH (15 knots; 7.7 m/s)
gusting to 32 MPH (28 knots; 14.4 m/s)
Visibility: missing
Ceiling: unknown
Clouds: missing
Weather: no significant weather forecast for this period